sensor_id;sensor_type;location;lat;lon;timestamp;temperature;humidity
30186;DHT22;31152;49.190;8.122;2022-11-20T00:01:31;4.50;99.90
30186;DHT22;31152;49.190;8.122;2022-11-20T00:04:00;4.50;99.90
30186;DHT22;31152;49.190;8.122;2022-11-20T00:06:28;4.50;99.90
30186;DHT22;31152;49.190;8.122;2022-11-20T00:08:59;4.50;99.90
30186;DHT22;31152;49.190;8.122;2022-11-20T00:11:28;4.50;99.90
30186;DHT22;31152;49.190;8.122;2022-11-20T00:13:59;4.50;99.90
30186;DHT22;31152;49.190;8.122;2022-11-20T00:16:28;4.40;99.90
30186;DHT22;31152;49.190;8.122;2022-11-20T00:18:58;4.50;99.90
30186;DHT22;31152;49.190;8.122;2022-11-20T00:21:26;4.50;99.90
30186;DHT22;31152;49.190;8.122;2022-11-20T00:23:56;4.50;99.90
30186;DHT22;31152;49.190;8.122;2022-11-20T00:26:27;4.50;99.90
30186;DHT22;31152;49.190;8.122;2022-11-20T00:28:56;4.50;99.90
30186;DHT22;31152;49.190;8.122;2022-11-20T00:31:23;4.50;99.90
30186;DHT22;31152;49.190;8.122;2022-11-20T00:33:50;4.50;99.90
30186;DHT22;31152;49.190;8.122;2022-11-20T00:36:19;4.40;99.90
30186;DHT22;31152;49.190;8.122;2022-11-20T00:38:52;4.40;99.90
30186;DHT22;31152;49.190;8.122;2022-11-20T00:41:19;4.40;99.90
30186;DHT22;31152;49.190;8.122;2022-11-20T00:43:48;4.40;99.90
30186;DHT22;31152;49.190;8.122;2022-11-20T00:46:16;4.40;99.90
30186;DHT22;31152;49.190;8.122;2022-11-20T00:48:46;4.40;99.90
30186;DHT22;31152;49.190;8.122;2022-11-20T00:51:16;4.40;99.90
30186;DHT22;31152;49.190;8.122;2022-11-20T00:53:44;4.30;99.90
30186;DHT22;31152;49.190;8.122;2022-11-20T00:56:14;4.30;99.90
30186;DHT22;31152;49.190;8.122;2022-11-20T00:58:43;4.30;99.90
30186;DHT22;31152;49.190;8.122;2022-11-20T01:01:16;4.40;99.90
30186;DHT22;31152;49.190;8.122;2022-11-20T01:03:48;4.40;99.90
30186;DHT22;31152;49.190;8.122;2022-11-20T01:08:53;4.40;99.90
30186;DHT22;31152;49.190;8.122;2022-11-20T01:11:27;4.40;99.90
30186;DHT22;31152;49.190;8.122;2022-11-20T01:13:54;4.40;99.90
30186;DHT22;31152;49.190;8.122;2022-11-20T01:16:27;4.40;99.90
30186;DHT22;31152;49.190;8.122;2022-11-20T01:18:57;4.40;99.90
30186;DHT22;31152;49.190;8.122;2022-11-20T01:21:29;4.40;99.90
30186;DHT22;31152;49.190;8.122;2022-11-20T01:23:56;4.40;99.90
30186;DHT22;31152;49.190;8.122;2022-11-20T01:26:25;4.40;99.90
30186;DHT22;31152;49.190;8.122;2022-11-20T01:28:53;4.40;99.90
30186;DHT22;31152;49.190;8.122;2022-11-20T01:31:32;4.50;99.90
30186;DHT22;31152;49.190;8.122;2022-11-20T01:34:09;4.50;99.90
30186;DHT22;31152;49.190;8.122;2022-11-20T01:36:36;4.50;99.90
30186;DHT22;31152;49.190;8.122;2022-11-20T01:39:15;4.50;99.90
30186;DHT22;31152;49.190;8.122;2022-11-20T01:41:43;4.50;99.90
30186;DHT22;31152;49.190;8.122;2022-11-20T01:52:52;4.70;99.90
30186;DHT22;31152;49.190;8.122;2022-11-20T01:55:23;4.70;99.90
30186;DHT22;31152;49.190;8.122;2022-11-20T01:57:52;4.70;99.90
30186;DHT22;31152;49.190;8.122;2022-11-20T02:00:20;4.80;99.90
30186;DHT22;31152;49.190;8.122;2022-11-20T02:02:56;4.80;99.90
30186;DHT22;31152;49.190;8.122;2022-11-20T02:05:45;4.80;99.90
30186;DHT22;31152;49.190;8.122;2022-11-20T02:08:13;4.90;99.90
30186;DHT22;31152;49.190;8.122;2022-11-20T02:10:43;4.90;99.90
30186;DHT22;31152;49.190;8.122;2022-11-20T02:13:09;4.90;99.90
30186;DHT22;31152;49.190;8.122;2022-11-20T02:15:55;4.90;99.90
30186;DHT22;31152;49.190;8.122;2022-11-20T02:18:22;5.00;99.90
30186;DHT22;31152;49.190;8.122;2022-11-20T02:21:02;5.00;99.90
30186;DHT22;31152;49.190;8.122;2022-11-20T02:26:24;5.00;99.90
30186;DHT22;31152;49.190;8.122;2022-11-20T02:28:52;5.00;99.90
30186;DHT22;31152;49.190;8.122;2022-11-20T02:31:18;5.00;99.90
30186;DHT22;31152;49.190;8.122;2022-11-20T02:33:45;5.00;99.90
30186;DHT22;31152;49.190;8.122;2022-11-20T02:36:15;5.00;99.90
30186;DHT22;31152;49.190;8.122;2022-11-20T02:38:43;5.10;99.90
30186;DHT22;31152;49.190;8.122;2022-11-20T02:41:14;5.10;99.90
30186;DHT22;31152;49.190;8.122;2022-11-20T02:43:43;5.10;99.90
30186;DHT22;31152;49.190;8.122;2022-11-20T02:46:10;5.10;99.90
30186;DHT22;31152;49.190;8.122;2022-11-20T02:48:39;5.10;99.90
30186;DHT22;31152;49.190;8.122;2022-11-20T02:51:06;5.10;99.90
30186;DHT22;31152;49.190;8.122;2022-11-20T02:53:32;5.20;99.90
30186;DHT22;31152;49.190;8.122;2022-11-20T02:56:01;5.20;99.90
30186;DHT22;31152;49.190;8.122;2022-11-20T02:58:28;5.20;99.90
30186;DHT22;31152;49.190;8.122;2022-11-20T03:00:57;5.20;99.90
30186;DHT22;31152;49.190;8.122;2022-11-20T03:03:24;5.20;99.90
30186;DHT22;31152;49.190;8.122;2022-11-20T03:05:50;5.20;99.90
30186;DHT22;31152;49.190;8.122;2022-11-20T03:08:17;5.20;99.90
30186;DHT22;31152;49.190;8.122;2022-11-20T03:10:44;5.20;99.90
30186;DHT22;31152;49.190;8.122;2022-11-20T03:13:10;5.20;99.90
30186;DHT22;31152;49.190;8.122;2022-11-20T03:15:37;5.30;99.90
30186;DHT22;31152;49.190;8.122;2022-11-20T03:18:04;5.20;99.90
30186;DHT22;31152;49.190;8.122;2022-11-20T03:20:36;5.20;99.90
30186;DHT22;31152;49.190;8.122;2022-11-20T03:23:02;5.20;99.90
30186;DHT22;31152;49.190;8.122;2022-11-20T03:25:31;5.30;99.90
30186;DHT22;31152;49.190;8.122;2022-11-20T03:27:58;5.20;99.90
30186;DHT22;31152;49.190;8.122;2022-11-20T03:30:25;5.20;99.90
30186;DHT22;31152;49.190;8.122;2022-11-20T03:32:56;5.20;99.90
30186;DHT22;31152;49.190;8.122;2022-11-20T03:35:23;5.20;99.90
30186;DHT22;31152;49.190;8.122;2022-11-20T03:37:49;5.20;99.90
30186;DHT22;31152;49.190;8.122;2022-11-20T03:40:16;5.30;99.90
30186;DHT22;31152;49.190;8.122;2022-11-20T03:42:45;5.30;99.90
30186;DHT22;31152;49.190;8.122;2022-11-20T03:45:16;5.40;99.90
30186;DHT22;31152;49.190;8.122;2022-11-20T03:47:44;5.50;99.90
30186;DHT22;31152;49.190;8.122;2022-11-20T03:50:12;5.60;99.90
30186;DHT22;31152;49.190;8.122;2022-11-20T03:52:40;5.70;99.90
30186;DHT22;31152;49.190;8.122;2022-11-20T03:55:09;5.90;99.90
30186;DHT22;31152;49.190;8.122;2022-11-20T03:57:38;6.00;99.90
30186;DHT22;31152;49.190;8.122;2022-11-20T04:00:05;6.20;99.90
30186;DHT22;31152;49.190;8.122;2022-11-20T04:02:35;6.30;99.90
30186;DHT22;31152;49.190;8.122;2022-11-20T04:05:01;6.40;99.90
30186;DHT22;31152;49.190;8.122;2022-11-20T04:07:28;6.50;99.90
30186;DHT22;31152;49.190;8.122;2022-11-20T04:09:55;6.50;99.90
30186;DHT22;31152;49.190;8.122;2022-11-20T04:12:21;6.60;99.90
30186;DHT22;31152;49.190;8.122;2022-11-20T04:14:48;6.70;99.90
30186;DHT22;31152;49.190;8.122;2022-11-20T04:17:15;6.80;99.90
30186;DHT22;31152;49.190;8.122;2022-11-20T04:19:41;6.90;99.90
30186;DHT22;31152;49.190;8.122;2022-11-20T04:22:08;6.90;99.90
30186;DHT22;31152;49.190;8.122;2022-11-20T04:24:35;6.90;99.90
30186;DHT22;31152;49.190;8.122;2022-11-20T04:27:01;6.90;99.90
30186;DHT22;31152;49.190;8.122;2022-11-20T04:29:30;6.90;99.90
30186;DHT22;31152;49.190;8.122;2022-11-20T04:31:57;7.00;99.90
30186;DHT22;31152;49.190;8.122;2022-11-20T04:34:26;7.00;99.90
30186;DHT22;31152;49.190;8.122;2022-11-20T04:36:58;7.00;99.90
30186;DHT22;31152;49.190;8.122;2022-11-20T04:39:24;7.00;99.90
30186;DHT22;31152;49.190;8.122;2022-11-20T04:41:51;7.00;99.90
30186;DHT22;31152;49.190;8.122;2022-11-20T04:44:38;7.00;99.90
30186;DHT22;31152;49.190;8.122;2022-11-20T04:47:07;7.10;99.90
30186;DHT22;31152;49.190;8.122;2022-11-20T04:49:34;7.10;99.90
30186;DHT22;31152;49.190;8.122;2022-11-20T04:52:01;7.20;99.90
30186;DHT22;31152;49.190;8.122;2022-11-20T04:54:32;7.20;99.90
30186;DHT22;31152;49.190;8.122;2022-11-20T04:56:59;7.30;99.90
30186;DHT22;31152;49.190;8.122;2022-11-20T04:59:25;7.40;99.90
30186;DHT22;31152;49.190;8.122;2022-11-20T05:01:52;7.40;99.90
30186;DHT22;31152;49.190;8.122;2022-11-20T05:04:19;7.50;99.90
30186;DHT22;31152;49.190;8.122;2022-11-20T05:06:45;7.50;99.90
30186;DHT22;31152;49.190;8.122;2022-11-20T05:09:12;7.50;99.90
30186;DHT22;31152;49.190;8.122;2022-11-20T05:11:41;7.50;99.90
30186;DHT22;31152;49.190;8.122;2022-11-20T05:14:08;7.50;99.90
30186;DHT22;31152;49.190;8.122;2022-11-20T05:16:37;7.50;99.90
30186;DHT22;31152;49.190;8.122;2022-11-20T05:19:04;7.60;99.90
30186;DHT22;31152;49.190;8.122;2022-11-20T05:21:31;7.60;99.90
30186;DHT22;31152;49.190;8.122;2022-11-20T05:24:00;7.60;99.90
30186;DHT22;31152;49.190;8.122;2022-11-20T05:26:29;7.60;99.90
30186;DHT22;31152;49.190;8.122;2022-11-20T05:28:56;7.60;99.90
30186;DHT22;31152;49.190;8.122;2022-11-20T05:31:24;7.50;99.90
30186;DHT22;31152;49.190;8.122;2022-11-20T05:33:55;7.50;99.90
30186;DHT22;31152;49.190;8.122;2022-11-20T05:36:25;7.50;99.90
30186;DHT22;31152;49.190;8.122;2022-11-20T05:38:54;7.50;99.90
30186;DHT22;31152;49.190;8.122;2022-11-20T05:41:29;7.40;99.90
30186;DHT22;31152;49.190;8.122;2022-11-20T05:43:59;7.40;99.90
30186;DHT22;31152;49.190;8.122;2022-11-20T05:46:26;7.40;99.90
30186;DHT22;31152;49.190;8.122;2022-11-20T05:48:55;7.40;99.90
30186;DHT22;31152;49.190;8.122;2022-11-20T05:51:23;7.40;99.90
30186;DHT22;31152;49.190;8.122;2022-11-20T05:53:50;7.30;99.90
30186;DHT22;31152;49.190;8.122;2022-11-20T05:56:22;7.40;99.90
30186;DHT22;31152;49.190;8.122;2022-11-20T05:58:52;7.40;99.90
30186;DHT22;31152;49.190;8.122;2022-11-20T06:01:21;7.30;99.90
30186;DHT22;31152;49.190;8.122;2022-11-20T06:03:49;7.30;99.90
30186;DHT22;31152;49.190;8.122;2022-11-20T06:06:18;7.30;99.90
30186;DHT22;31152;49.190;8.122;2022-11-20T06:08:45;7.30;99.90
30186;DHT22;31152;49.190;8.122;2022-11-20T06:11:13;7.30;99.90
30186;DHT22;31152;49.190;8.122;2022-11-20T06:13:40;7.30;99.90
30186;DHT22;31152;49.190;8.122;2022-11-20T06:16:09;7.30;99.90
30186;DHT22;31152;49.190;8.122;2022-11-20T06:18:39;7.30;99.90
30186;DHT22;31152;49.190;8.122;2022-11-20T06:21:11;7.30;99.90
30186;DHT22;31152;49.190;8.122;2022-11-20T06:23:38;7.30;99.90
30186;DHT22;31152;49.190;8.122;2022-11-20T06:26:08;7.30;99.90
30186;DHT22;31152;49.190;8.122;2022-11-20T06:28:37;7.30;99.90
30186;DHT22;31152;49.190;8.122;2022-11-20T06:31:05;7.30;99.90
30186;DHT22;31152;49.190;8.122;2022-11-20T06:33:32;7.30;99.90
30186;DHT22;31152;49.190;8.122;2022-11-20T06:36:00;7.40;99.90
30186;DHT22;31152;49.190;8.122;2022-11-20T06:38:36;7.30;99.90
30186;DHT22;31152;49.190;8.122;2022-11-20T06:41:03;7.30;99.90
30186;DHT22;31152;49.190;8.122;2022-11-20T06:43:30;7.40;99.90
30186;DHT22;31152;49.190;8.122;2022-11-20T06:45:58;7.30;99.90
30186;DHT22;31152;49.190;8.122;2022-11-20T06:48:27;7.30;99.90
30186;DHT22;31152;49.190;8.122;2022-11-20T06:50:53;7.30;99.90
30186;DHT22;31152;49.190;8.122;2022-11-20T06:53:21;7.30;99.90
30186;DHT22;31152;49.190;8.122;2022-11-20T06:55:49;7.30;99.90
30186;DHT22;31152;49.190;8.122;2022-11-20T06:58:16;7.30;99.90
30186;DHT22;31152;49.190;8.122;2022-11-20T07:00:43;7.30;99.90
30186;DHT22;31152;49.190;8.122;2022-11-20T07:03:11;7.30;99.90
30186;DHT22;31152;49.190;8.122;2022-11-20T07:05:38;7.30;99.90
30186;DHT22;31152;49.190;8.122;2022-11-20T07:08:08;7.30;99.90
30186;DHT22;31152;49.190;8.122;2022-11-20T07:10:35;7.30;99.90
30186;DHT22;31152;49.190;8.122;2022-11-20T07:13:02;7.30;99.90
30186;DHT22;31152;49.190;8.122;2022-11-20T07:15:29;7.30;99.90
30186;DHT22;31152;49.190;8.122;2022-11-20T07:17:59;7.30;99.90
30186;DHT22;31152;49.190;8.122;2022-11-20T07:20:26;7.30;99.90
30186;DHT22;31152;49.190;8.122;2022-11-20T07:22:58;7.30;99.90
30186;DHT22;31152;49.190;8.122;2022-11-20T07:25:28;7.30;99.90
30186;DHT22;31152;49.190;8.122;2022-11-20T07:28:02;7.40;99.90
30186;DHT22;31152;49.190;8.122;2022-11-20T07:30:28;7.40;99.90
30186;DHT22;31152;49.190;8.122;2022-11-20T07:32:56;7.40;99.90
30186;DHT22;31152;49.190;8.122;2022-11-20T07:35:24;7.40;99.90
30186;DHT22;31152;49.190;8.122;2022-11-20T07:37:56;7.50;99.90
30186;DHT22;31152;49.190;8.122;2022-11-20T07:40:22;7.50;99.90
30186;DHT22;31152;49.190;8.122;2022-11-20T07:45:17;7.50;99.90
30186;DHT22;31152;49.190;8.122;2022-11-20T07:47:44;7.50;99.90
30186;DHT22;31152;49.190;8.122;2022-11-20T07:50:12;7.50;99.90
30186;DHT22;31152;49.190;8.122;2022-11-20T07:52:41;7.50;99.90
30186;DHT22;31152;49.190;8.122;2022-11-20T07:55:11;7.50;99.90
30186;DHT22;31152;49.190;8.122;2022-11-20T07:57:38;7.50;99.90
30186;DHT22;31152;49.190;8.122;2022-11-20T08:00:07;7.60;99.90
30186;DHT22;31152;49.190;8.122;2022-11-20T08:02:42;7.60;99.90
30186;DHT22;31152;49.190;8.122;2022-11-20T08:05:09;7.60;99.90
30186;DHT22;31152;49.190;8.122;2022-11-20T08:07:37;7.60;99.90
30186;DHT22;31152;49.190;8.122;2022-11-20T08:10:06;7.60;99.90
30186;DHT22;31152;49.190;8.122;2022-11-20T08:12:33;7.70;99.90
30186;DHT22;31152;49.190;8.122;2022-11-20T08:15:18;7.80;99.90
30186;DHT22;31152;49.190;8.122;2022-11-20T08:17:44;7.80;99.90
30186;DHT22;31152;49.190;8.122;2022-11-20T08:20:31;7.80;99.90
30186;DHT22;31152;49.190;8.122;2022-11-20T08:23:03;7.90;99.90
30186;DHT22;31152;49.190;8.122;2022-11-20T08:25:35;7.90;99.90
30186;DHT22;31152;49.190;8.122;2022-11-20T08:28:05;7.90;99.90
30186;DHT22;31152;49.190;8.122;2022-11-20T08:30:46;8.00;99.90
30186;DHT22;31152;49.190;8.122;2022-11-20T08:33:12;8.00;99.90
30186;DHT22;31152;49.190;8.122;2022-11-20T08:35:39;8.00;99.90
30186;DHT22;31152;49.190;8.122;2022-11-20T08:38:08;8.10;99.90
30186;DHT22;31152;49.190;8.122;2022-11-20T08:40:38;8.10;99.90
30186;DHT22;31152;49.190;8.122;2022-11-20T08:43:04;8.00;99.90
30186;DHT22;31152;49.190;8.122;2022-11-20T08:45:33;8.00;99.90
30186;DHT22;31152;49.190;8.122;2022-11-20T08:48:02;8.00;99.90
30186;DHT22;31152;49.190;8.122;2022-11-20T08:50:29;8.10;99.90
30186;DHT22;31152;49.190;8.122;2022-11-20T08:53:05;8.00;99.90
30186;DHT22;31152;49.190;8.122;2022-11-20T08:55:32;8.00;99.90
30186;DHT22;31152;49.190;8.122;2022-11-20T08:58:05;8.10;99.90
30186;DHT22;31152;49.190;8.122;2022-11-20T09:00:33;8.10;99.90
30186;DHT22;31152;49.190;8.122;2022-11-20T09:03:01;8.20;99.90
30186;DHT22;31152;49.190;8.122;2022-11-20T09:05:28;8.30;99.90
30186;DHT22;31152;49.190;8.122;2022-11-20T09:07:58;8.40;99.90
30186;DHT22;31152;49.190;8.122;2022-11-20T09:10:26;8.50;99.90
30186;DHT22;31152;49.190;8.122;2022-11-20T09:12:54;8.50;99.90
30186;DHT22;31152;49.190;8.122;2022-11-20T09:15:22;8.60;99.90
30186;DHT22;31152;49.190;8.122;2022-11-20T09:17:58;8.60;99.90
30186;DHT22;31152;49.190;8.122;2022-11-20T09:20:25;8.60;99.90
30186;DHT22;31152;49.190;8.122;2022-11-20T09:22:52;8.70;99.90
30186;DHT22;31152;49.190;8.122;2022-11-20T09:25:19;8.80;99.90
30186;DHT22;31152;49.190;8.122;2022-11-20T09:27:46;8.80;99.90
30186;DHT22;31152;49.190;8.122;2022-11-20T09:30:14;8.80;99.90
30186;DHT22;31152;49.190;8.122;2022-11-20T09:32:44;8.80;99.90
30186;DHT22;31152;49.190;8.122;2022-11-20T09:35:11;8.60;99.90
30186;DHT22;31152;49.190;8.122;2022-11-20T09:37:40;8.50;99.90
30186;DHT22;31152;49.190;8.122;2022-11-20T09:40:20;8.40;99.90
30186;DHT22;31152;49.190;8.122;2022-11-20T09:43:27;8.30;99.90
30186;DHT22;31152;49.190;8.122;2022-11-20T09:54:06;8.20;99.90
30186;DHT22;31152;49.190;8.122;2022-11-20T09:56:37;8.20;99.90
30186;DHT22;31152;49.190;8.122;2022-11-20T09:59:08;8.30;99.90
30186;DHT22;31152;49.190;8.122;2022-11-20T10:01:41;8.30;99.90
30186;DHT22;31152;49.190;8.122;2022-11-20T10:04:17;8.30;99.90
30186;DHT22;31152;49.190;8.122;2022-11-20T10:06:51;8.40;99.90
30186;DHT22;31152;49.190;8.122;2022-11-20T10:09:46;8.40;99.90
30186;DHT22;31152;49.190;8.122;2022-11-20T10:29:02;9.70;99.90
30186;DHT22;31152;49.190;8.122;2022-11-20T10:31:51;9.50;99.90
30186;DHT22;31152;49.190;8.122;2022-11-20T10:37:18;11.10;99.90
30186;DHT22;31152;49.190;8.122;2022-11-20T10:43:04;12.40;99.90
30186;DHT22;31152;49.190;8.122;2022-11-20T10:45:53;11.90;99.90
30186;DHT22;31152;49.190;8.122;2022-11-20T10:48:27;12.20;99.90
30186;DHT22;31152;49.190;8.122;2022-11-20T10:56:46;12.90;99.90
30186;DHT22;31152;49.190;8.122;2022-11-20T11:01:43;13.80;99.90
30186;DHT22;31152;49.190;8.122;2022-11-20T11:07:23;14.50;99.90
30186;DHT22;31152;49.190;8.122;2022-11-20T11:09:55;14.10;99.90
30186;DHT22;31152;49.190;8.122;2022-11-20T11:12:25;14.40;99.90
30186;DHT22;31152;49.190;8.122;2022-11-20T11:14:56;14.40;99.90
30186;DHT22;31152;49.190;8.122;2022-11-20T11:17:28;14.40;99.90
30186;DHT22;31152;49.190;8.122;2022-11-20T11:22:46;13.70;99.90
30186;DHT22;31152;49.190;8.122;2022-11-20T11:25:33;13.70;99.90
30186;DHT22;31152;49.190;8.122;2022-11-20T11:30:30;12.90;99.90
30186;DHT22;31152;49.190;8.122;2022-11-20T11:33:10;13.30;99.90
30186;DHT22;31152;49.190;8.122;2022-11-20T11:35:52;13.80;99.90
30186;DHT22;31152;49.190;8.122;2022-11-20T11:38:34;13.40;99.90
30186;DHT22;31152;49.190;8.122;2022-11-20T11:41:05;14.20;99.90
30186;DHT22;31152;49.190;8.122;2022-11-20T11:43:36;13.90;99.90
30186;DHT22;31152;49.190;8.122;2022-11-20T11:46:35;14.10;99.90
30186;DHT22;31152;49.190;8.122;2022-11-20T11:51:52;13.50;99.90
30186;DHT22;31152;49.190;8.122;2022-11-20T12:00:03;16.00;99.20
30186;DHT22;31152;49.190;8.122;2022-11-20T12:02:43;15.90;99.10
30186;DHT22;31152;49.190;8.122;2022-11-20T12:05:28;16.40;98.70
30186;DHT22;31152;49.190;8.122;2022-11-20T12:08:02;15.50;98.50
30186;DHT22;31152;49.190;8.122;2022-11-20T12:10:50;14.40;99.90
30186;DHT22;31152;49.190;8.122;2022-11-20T12:16:04;15.00;99.90
30186;DHT22;31152;49.190;8.122;2022-11-20T12:18:31;15.60;98.90
30186;DHT22;31152;49.190;8.122;2022-11-20T12:29:47;12.50;99.90
30186;DHT22;31152;49.190;8.122;2022-11-20T12:43:27;13.60;99.90
30186;DHT22;31152;49.190;8.122;2022-11-20T12:46:43;13.80;99.90
30186;DHT22;31152;49.190;8.122;2022-11-20T12:54:52;12.30;99.90
30186;DHT22;31152;49.190;8.122;2022-11-20T12:57:44;11.90;99.90
30186;DHT22;31152;49.190;8.122;2022-11-20T13:00:20;11.60;99.90
30186;DHT22;31152;49.190;8.122;2022-11-20T13:08:23;11.20;99.90
30186;DHT22;31152;49.190;8.122;2022-11-20T13:17:11;10.70;99.90
30186;DHT22;31152;49.190;8.122;2022-11-20T13:19:39;10.80;99.90
30186;DHT22;31152;49.190;8.122;2022-11-20T13:22:08;10.80;99.90
30186;DHT22;31152;49.190;8.122;2022-11-20T13:24:35;10.60;99.90
30186;DHT22;31152;49.190;8.122;2022-11-20T13:27:17;10.50;99.90
30186;DHT22;31152;49.190;8.122;2022-11-20T13:29:47;10.50;99.90
30186;DHT22;31152;49.190;8.122;2022-11-20T13:32:24;10.50;99.90
30186;DHT22;31152;49.190;8.122;2022-11-20T13:34:56;10.40;99.90
30186;DHT22;31152;49.190;8.122;2022-11-20T13:37:30;10.40;99.90
30186;DHT22;31152;49.190;8.122;2022-11-20T13:43:02;10.30;99.90
30186;DHT22;31152;49.190;8.122;2022-11-20T13:45:28;10.30;99.90
30186;DHT22;31152;49.190;8.122;2022-11-20T13:47:57;10.40;99.90
30186;DHT22;31152;49.190;8.122;2022-11-20T13:50:46;10.40;99.90
30186;DHT22;31152;49.190;8.122;2022-11-20T13:53:37;10.30;99.90
30186;DHT22;31152;49.190;8.122;2022-11-20T13:56:21;10.20;99.90
30186;DHT22;31152;49.190;8.122;2022-11-20T13:59:02;10.20;99.90
30186;DHT22;31152;49.190;8.122;2022-11-20T14:01:39;10.20;99.90
30186;DHT22;31152;49.190;8.122;2022-11-20T14:04:15;10.10;99.90
30186;DHT22;31152;49.190;8.122;2022-11-20T14:06:46;10.10;99.90
30186;DHT22;31152;49.190;8.122;2022-11-20T14:09:34;10.10;99.90
30186;DHT22;31152;49.190;8.122;2022-11-20T14:12:02;10.10;99.90
30186;DHT22;31152;49.190;8.122;2022-11-20T14:14:30;10.10;99.90
30186;DHT22;31152;49.190;8.122;2022-11-20T14:19:50;10.00;99.90
30186;DHT22;31152;49.190;8.122;2022-11-20T14:22:25;9.80;99.90
30186;DHT22;31152;49.190;8.122;2022-11-20T14:27:40;9.70;99.90
30186;DHT22;31152;49.190;8.122;2022-11-20T14:30:18;9.70;99.90
30186;DHT22;31152;49.190;8.122;2022-11-20T14:32:46;9.60;99.90
30186;DHT22;31152;49.190;8.122;2022-11-20T14:35:28;9.50;99.90
30186;DHT22;31152;49.190;8.122;2022-11-20T14:37:55;9.50;99.90
30186;DHT22;31152;49.190;8.122;2022-11-20T14:40:29;9.40;99.90
30186;DHT22;31152;49.190;8.122;2022-11-20T14:42:57;9.40;99.90
30186;DHT22;31152;49.190;8.122;2022-11-20T14:45:25;9.30;99.90
30186;DHT22;31152;49.190;8.122;2022-11-20T14:47:54;9.30;99.90
30186;DHT22;31152;49.190;8.122;2022-11-20T14:50:28;9.30;99.90
30186;DHT22;31152;49.190;8.122;2022-11-20T14:52:59;9.30;99.90
30186;DHT22;31152;49.190;8.122;2022-11-20T14:58:01;9.20;99.90
30186;DHT22;31152;49.190;8.122;2022-11-20T15:00:29;9.20;99.90
30186;DHT22;31152;49.190;8.122;2022-11-20T15:02:57;9.10;99.90
30186;DHT22;31152;49.190;8.122;2022-11-20T15:05:26;9.10;99.90
30186;DHT22;31152;49.190;8.122;2022-11-20T15:08:10;9.00;99.90
30186;DHT22;31152;49.190;8.122;2022-11-20T15:10:43;9.00;99.90
30186;DHT22;31152;49.190;8.122;2022-11-20T15:13:26;9.00;99.90
30186;DHT22;31152;49.190;8.122;2022-11-20T15:15:57;8.90;99.90
30186;DHT22;31152;49.190;8.122;2022-11-20T15:18:38;8.90;99.90
30186;DHT22;31152;49.190;8.122;2022-11-20T15:21:12;8.80;99.90
30186;DHT22;31152;49.190;8.122;2022-11-20T15:23:39;8.80;99.90
30186;DHT22;31152;49.190;8.122;2022-11-20T15:26:07;8.80;99.90
30186;DHT22;31152;49.190;8.122;2022-11-20T15:28:45;8.70;99.90
30186;DHT22;31152;49.190;8.122;2022-11-20T15:31:16;8.70;99.90
30186;DHT22;31152;49.190;8.122;2022-11-20T15:33:43;8.60;99.90
30186;DHT22;31152;49.190;8.122;2022-11-20T15:36:10;8.60;99.90
30186;DHT22;31152;49.190;8.122;2022-11-20T15:38:37;8.60;99.90
30186;DHT22;31152;49.190;8.122;2022-11-20T15:41:04;8.60;99.90
30186;DHT22;31152;49.190;8.122;2022-11-20T15:43:32;8.60;99.90
30186;DHT22;31152;49.190;8.122;2022-11-20T15:46:03;8.50;99.90
30186;DHT22;31152;49.190;8.122;2022-11-20T15:48:54;8.50;99.90
30186;DHT22;31152;49.190;8.122;2022-11-20T15:51:31;8.60;99.90
30186;DHT22;31152;49.190;8.122;2022-11-20T15:53:59;8.50;99.90
30186;DHT22;31152;49.190;8.122;2022-11-20T15:56:27;8.60;99.90
30186;DHT22;31152;49.190;8.122;2022-11-20T15:58:55;8.60;99.90
30186;DHT22;31152;49.190;8.122;2022-11-20T16:01:27;8.50;99.90
30186;DHT22;31152;49.190;8.122;2022-11-20T16:03:54;8.50;99.90
30186;DHT22;31152;49.190;8.122;2022-11-20T16:06:23;8.50;99.90
30186;DHT22;31152;49.190;8.122;2022-11-20T16:08:50;8.50;99.90
30186;DHT22;31152;49.190;8.122;2022-11-20T16:11:17;8.40;99.90
30186;DHT22;31152;49.190;8.122;2022-11-20T16:13:45;8.40;99.90
30186;DHT22;31152;49.190;8.122;2022-11-20T16:16:35;8.40;99.90
30186;DHT22;31152;49.190;8.122;2022-11-20T16:19:02;8.30;99.90
30186;DHT22;31152;49.190;8.122;2022-11-20T16:21:30;8.40;99.90
30186;DHT22;31152;49.190;8.122;2022-11-20T16:24:04;8.30;99.90
30186;DHT22;31152;49.190;8.122;2022-11-20T16:26:31;8.30;99.90
30186;DHT22;31152;49.190;8.122;2022-11-20T16:28:59;8.20;99.90
30186;DHT22;31152;49.190;8.122;2022-11-20T16:31:26;8.20;99.90
30186;DHT22;31152;49.190;8.122;2022-11-20T16:33:57;8.20;99.90
30186;DHT22;31152;49.190;8.122;2022-11-20T16:36:25;8.10;99.90
30186;DHT22;31152;49.190;8.122;2022-11-20T16:38:55;8.10;99.90
30186;DHT22;31152;49.190;8.122;2022-11-20T16:41:23;8.00;99.90
30186;DHT22;31152;49.190;8.122;2022-11-20T16:43:54;8.00;99.90
30186;DHT22;31152;49.190;8.122;2022-11-20T16:46:25;8.00;99.90
30186;DHT22;31152;49.190;8.122;2022-11-20T16:48:54;8.00;99.90
30186;DHT22;31152;49.190;8.122;2022-11-20T16:51:21;8.00;99.90
30186;DHT22;31152;49.190;8.122;2022-11-20T16:53:51;8.00;99.90
30186;DHT22;31152;49.190;8.122;2022-11-20T16:56:22;8.00;99.90
30186;DHT22;31152;49.190;8.122;2022-11-20T16:58:50;8.00;99.90
30186;DHT22;31152;49.190;8.122;2022-11-20T17:01:19;8.00;99.90
30186;DHT22;31152;49.190;8.122;2022-11-20T17:03:55;7.90;99.90
30186;DHT22;31152;49.190;8.122;2022-11-20T17:06:25;7.90;99.90
30186;DHT22;31152;49.190;8.122;2022-11-20T17:08:54;7.80;99.90
30186;DHT22;31152;49.190;8.122;2022-11-20T17:11:21;7.80;99.90
30186;DHT22;31152;49.190;8.122;2022-11-20T17:13:48;7.70;99.90
30186;DHT22;31152;49.190;8.122;2022-11-20T17:16:20;7.70;99.90
30186;DHT22;31152;49.190;8.122;2022-11-20T17:18:48;7.70;99.90
30186;DHT22;31152;49.190;8.122;2022-11-20T17:21:16;7.60;99.90
30186;DHT22;31152;49.190;8.122;2022-11-20T17:23:46;7.60;99.90
30186;DHT22;31152;49.190;8.122;2022-11-20T17:26:18;7.60;99.90
30186;DHT22;31152;49.190;8.122;2022-11-20T17:31:25;7.60;99.90
30186;DHT22;31152;49.190;8.122;2022-11-20T17:33:54;7.70;99.90
30186;DHT22;31152;49.190;8.122;2022-11-20T17:36:21;7.70;99.90
30186;DHT22;31152;49.190;8.122;2022-11-20T17:38:48;7.60;99.90
30186;DHT22;31152;49.190;8.122;2022-11-20T17:41:20;7.60;99.90
30186;DHT22;31152;49.190;8.122;2022-11-20T17:43:48;7.60;99.90
30186;DHT22;31152;49.190;8.122;2022-11-20T17:46:20;7.60;99.90
30186;DHT22;31152;49.190;8.122;2022-11-20T17:48:48;7.70;99.90
30186;DHT22;31152;49.190;8.122;2022-11-20T17:51:24;7.70;99.90
30186;DHT22;31152;49.190;8.122;2022-11-20T17:53:55;7.70;99.90
30186;DHT22;31152;49.190;8.122;2022-11-20T17:56:23;7.60;99.90
30186;DHT22;31152;49.190;8.122;2022-11-20T17:59:12;7.60;99.90
30186;DHT22;31152;49.190;8.122;2022-11-20T18:01:39;7.60;99.90
30186;DHT22;31152;49.190;8.122;2022-11-20T18:04:09;7.50;99.90
30186;DHT22;31152;49.190;8.122;2022-11-20T18:06:40;7.50;99.90
30186;DHT22;31152;49.190;8.122;2022-11-20T18:09:07;7.50;99.90
30186;DHT22;31152;49.190;8.122;2022-11-20T18:11:37;7.50;99.90
30186;DHT22;31152;49.190;8.122;2022-11-20T18:14:09;7.40;99.90